sensor_id;sensor_type;location;lat;lon;timestamp;P1;durP1;ratioP1;P2;durP2;ratioP2
29878;SDS011;16752;53.364;-1.488;2023-07-24T00:01:36;9.40;;;3.45;;
29878;SDS011;16752;53.364;-1.488;2023-07-24T00:04:23;4.78;;;3.05;;
29878;SDS011;16752;53.364;-1.488;2023-07-24T00:07:07;3.60;;;3.30;;
29878;SDS011;16752;53.364;-1.488;2023-07-24T00:13:16;5.05;;;3.20;;
29878;SDS011;16752;53.364;-1.488;2023-07-24T00:20:03;9.43;;;4.40;;
29878;SDS011;16752;53.364;-1.488;2023-07-24T00:22:48;5.57;;;3.97;;
29878;SDS011;16752;53.364;-1.488;2023-07-24T00:25:33;7.40;;;4.00;;
29878;SDS011;16752;53.364;-1.488;2023-07-24T00:41:34;5.32;;;3.67;;
29878;SDS011;16752;53.364;-1.488;2023-07-24T00:55:03;6.78;;;4.40;;
29878;SDS011;16752;53.364;-1.488;2023-07-24T00:58:23;6.32;;;4.60;;
29878;SDS011;16752;53.364;-1.488;2023-07-24T01:01:10;9.77;;;4.57;;
29878;SDS011;16752;53.364;-1.488;2023-07-24T01:03:57;7.57;;;4.80;;
29878;SDS011;16752;53.364;-1.488;2023-07-24T01:06:50;8.05;;;4.72;;
29878;SDS011;16752;53.364;-1.488;2023-07-24T01:09:34;5.15;;;4.30;;
29878;SDS011;16752;53.364;-1.488;2023-07-24T01:16:13;7.55;;;4.55;;
29878;SDS011;16752;53.364;-1.488;2023-07-24T01:19:01;7.70;;;4.75;;
29878;SDS011;16752;53.364;-1.488;2023-07-24T01:28:27;10.05;;;3.95;;
29878;SDS011;16752;53.364;-1.488;2023-07-24T01:31:12;5.22;;;4.50;;
29878;SDS011;16752;53.364;-1.488;2023-07-24T01:34:17;7.72;;;4.45;;
29878;SDS011;16752;53.364;-1.488;2023-07-24T01:37:26;8.57;;;4.70;;
29878;SDS011;16752;53.364;-1.488;2023-07-24T01:40:32;6.20;;;4.82;;
29878;SDS011;16752;53.364;-1.488;2023-07-24T01:44:11;9.82;;;5.20;;
29878;SDS011;16752;53.364;-1.488;2023-07-24T01:47:34;7.22;;;4.93;;
29878;SDS011;16752;53.364;-1.488;2023-07-24T01:50:21;5.97;;;5.00;;
29878;SDS011;16752;53.364;-1.488;2023-07-24T02:00:57;6.65;;;4.20;;
29878;SDS011;16752;53.364;-1.488;2023-07-24T02:04:09;8.38;;;4.63;;
29878;SDS011;16752;53.364;-1.488;2023-07-24T02:07:09;12.45;;;5.40;;
29878;SDS011;16752;53.364;-1.488;2023-07-24T02:10:02;6.72;;;4.65;;
29878;SDS011;16752;53.364;-1.488;2023-07-24T02:13:18;6.18;;;4.85;;
29878;SDS011;16752;53.364;-1.488;2023-07-24T02:16:20;5.82;;;4.97;;
29878;SDS011;16752;53.364;-1.488;2023-07-24T02:19:18;7.35;;;4.97;;
29878;SDS011;16752;53.364;-1.488;2023-07-24T02:25:20;8.18;;;5.00;;
29878;SDS011;16752;53.364;-1.488;2023-07-24T02:28:04;5.57;;;4.80;;
29878;SDS011;16752;53.364;-1.488;2023-07-24T02:30:57;8.27;;;4.68;;
29878;SDS011;16752;53.364;-1.488;2023-07-24T02:33:49;8.07;;;4.78;;
29878;SDS011;16752;53.364;-1.488;2023-07-24T02:37:05;12.65;;;4.93;;
29878;SDS011;16752;53.364;-1.488;2023-07-24T02:43:30;7.93;;;4.68;;
29878;SDS011;16752;53.364;-1.488;2023-07-24T02:46:43;7.00;;;4.88;;
29878;SDS011;16752;53.364;-1.488;2023-07-24T02:57:11;7.32;;;4.68;;
29878;SDS011;16752;53.364;-1.488;2023-07-24T03:00:33;6.82;;;5.13;;
29878;SDS011;16752;53.364;-1.488;2023-07-24T03:04:23;6.65;;;5.00;;
29878;SDS011;16752;53.364;-1.488;2023-07-24T03:11:40;12.13;;;5.00;;
29878;SDS011;16752;53.364;-1.488;2023-07-24T03:14:49;5.85;;;5.28;;
29878;SDS011;16752;53.364;-1.488;2023-07-24T03:18:08;7.13;;;4.68;;
29878;SDS011;16752;53.364;-1.488;2023-07-24T03:20:57;19.08;;;6.32;;
29878;SDS011;16752;53.364;-1.488;2023-07-24T03:23:44;8.18;;;5.55;;
29878;SDS011;16752;53.364;-1.488;2023-07-24T03:26:28;6.95;;;5.43;;
29878;SDS011;16752;53.364;-1.488;2023-07-24T03:32:46;11.43;;;5.35;;
29878;SDS011;16752;53.364;-1.488;2023-07-24T03:48:36;10.93;;;6.18;;
29878;SDS011;16752;53.364;-1.488;2023-07-24T03:51:43;10.55;;;5.28;;
29878;SDS011;16752;53.364;-1.488;2023-07-24T03:54:27;7.55;;;5.30;;
29878;SDS011;16752;53.364;-1.488;2023-07-24T03:57:15;6.15;;;5.43;;
29878;SDS011;16752;53.364;-1.488;2023-07-24T04:00:32;12.60;;;5.72;;
29878;SDS011;16752;53.364;-1.488;2023-07-24T04:03:16;7.82;;;5.18;;
29878;SDS011;16752;53.364;-1.488;2023-07-24T04:06:08;8.52;;;5.63;;
29878;SDS011;16752;53.364;-1.488;2023-07-24T04:08:53;7.38;;;5.95;;
29878;SDS011;16752;53.364;-1.488;2023-07-24T04:12:01;10.17;;;5.93;;
29878;SDS011;16752;53.364;-1.488;2023-07-24T04:14:49;11.00;;;6.32;;
29878;SDS011;16752;53.364;-1.488;2023-07-24T04:17:46;12.50;;;6.65;;
29878;SDS011;16752;53.364;-1.488;2023-07-24T04:20:36;9.95;;;5.93;;
29878;SDS011;16752;53.364;-1.488;2023-07-24T04:23:30;10.57;;;6.10;;
29878;SDS011;16752;53.364;-1.488;2023-07-24T04:26:14;14.57;;;7.30;;
29878;SDS011;16752;53.364;-1.488;2023-07-24T04:28:58;10.05;;;6.78;;
29878;SDS011;16752;53.364;-1.488;2023-07-24T04:31:47;13.23;;;6.32;;
29878;SDS011;16752;53.364;-1.488;2023-07-24T04:34:34;9.02;;;5.78;;
29878;SDS011;16752;53.364;-1.488;2023-07-24T04:37:18;15.88;;;6.45;;
29878;SDS011;16752;53.364;-1.488;2023-07-24T04:40:05;19.42;;;6.57;;
29878;SDS011;16752;53.364;-1.488;2023-07-24T04:42:49;18.60;;;6.97;;
29878;SDS011;16752;53.364;-1.488;2023-07-24T04:45:33;11.60;;;6.70;;
29878;SDS011;16752;53.364;-1.488;2023-07-24T04:48:17;14.65;;;5.57;;
29878;SDS011;16752;53.364;-1.488;2023-07-24T04:51:01;12.38;;;6.55;;
29878;SDS011;16752;53.364;-1.488;2023-07-24T04:53:45;17.15;;;5.88;;
29878;SDS011;16752;53.364;-1.488;2023-07-24T04:56:29;19.52;;;6.13;;
29878;SDS011;16752;53.364;-1.488;2023-07-24T04:59:13;18.15;;;6.45;;
29878;SDS011;16752;53.364;-1.488;2023-07-24T05:01:57;14.15;;;5.35;;
29878;SDS011;16752;53.364;-1.488;2023-07-24T05:04:41;17.88;;;6.40;;
29878;SDS011;16752;53.364;-1.488;2023-07-24T05:07:25;16.20;;;5.57;;
29878;SDS011;16752;53.364;-1.488;2023-07-24T05:10:09;13.38;;;4.82;;
29878;SDS011;16752;53.364;-1.488;2023-07-24T05:12:54;19.13;;;5.75;;
29878;SDS011;16752;53.364;-1.488;2023-07-24T05:15:40;13.05;;;6.03;;
29878;SDS011;16752;53.364;-1.488;2023-07-24T05:18:24;11.30;;;4.80;;
29878;SDS011;16752;53.364;-1.488;2023-07-24T05:21:08;15.95;;;4.95;;
29878;SDS011;16752;53.364;-1.488;2023-07-24T05:27:04;15.25;;;4.97;;
29878;SDS011;16752;53.364;-1.488;2023-07-24T05:29:51;9.40;;;4.60;;
29878;SDS011;16752;53.364;-1.488;2023-07-24T05:32:35;14.70;;;5.18;;
29878;SDS011;16752;53.364;-1.488;2023-07-24T05:35:22;16.90;;;4.65;;
29878;SDS011;16752;53.364;-1.488;2023-07-24T05:38:07;16.05;;;4.38;;
29878;SDS011;16752;53.364;-1.488;2023-07-24T05:41:09;12.93;;;5.40;;
29878;SDS011;16752;53.364;-1.488;2023-07-24T05:43:53;12.45;;;4.80;;
29878;SDS011;16752;53.364;-1.488;2023-07-24T05:46:41;16.20;;;4.65;;
29878;SDS011;16752;53.364;-1.488;2023-07-24T05:49:25;9.85;;;3.92;;
29878;SDS011;16752;53.364;-1.488;2023-07-24T05:52:09;17.00;;;5.35;;
29878;SDS011;16752;53.364;-1.488;2023-07-24T05:54:54;14.43;;;4.22;;
29878;SDS011;16752;53.364;-1.488;2023-07-24T05:57:38;12.00;;;4.35;;
29878;SDS011;16752;53.364;-1.488;2023-07-24T06:00:22;11.13;;;4.10;;
29878;SDS011;16752;53.364;-1.488;2023-07-24T06:03:06;18.67;;;4.10;;
29878;SDS011;16752;53.364;-1.488;2023-07-24T06:05:51;15.43;;;4.65;;
29878;SDS011;16752;53.364;-1.488;2023-07-24T06:08:36;14.77;;;5.10;;
29878;SDS011;16752;53.364;-1.488;2023-07-24T06:11:20;12.63;;;4.22;;
29878;SDS011;16752;53.364;-1.488;2023-07-24T06:14:04;13.50;;;4.28;;
29878;SDS011;16752;53.364;-1.488;2023-07-24T06:16:48;11.85;;;3.95;;
29878;SDS011;16752;53.364;-1.488;2023-07-24T06:19:32;13.15;;;4.82;;
29878;SDS011;16752;53.364;-1.488;2023-07-24T06:22:16;12.25;;;4.63;;
29878;SDS011;16752;53.364;-1.488;2023-07-24T06:25:00;18.08;;;4.60;;
29878;SDS011;16752;53.364;-1.488;2023-07-24T06:27:44;18.45;;;4.30;;
29878;SDS011;16752;53.364;-1.488;2023-07-24T06:30:28;20.10;;;4.38;;
29878;SDS011;16752;53.364;-1.488;2023-07-24T06:33:18;18.90;;;5.13;;
29878;SDS011;16752;53.364;-1.488;2023-07-24T06:36:09;17.52;;;5.97;;
29878;SDS011;16752;53.364;-1.488;2023-07-24T06:38:54;7.93;;;4.07;;
29878;SDS011;16752;53.364;-1.488;2023-07-24T06:41:38;11.70;;;4.07;;
29878;SDS011;16752;53.364;-1.488;2023-07-24T06:44:22;13.80;;;3.83;;
29878;SDS011;16752;53.364;-1.488;2023-07-24T06:47:06;8.65;;;3.85;;
29878;SDS011;16752;53.364;-1.488;2023-07-24T06:49:51;8.43;;;3.50;;
29878;SDS011;16752;53.364;-1.488;2023-07-24T06:52:38;19.40;;;3.85;;
29878;SDS011;16752;53.364;-1.488;2023-07-24T07:06:17;13.23;;;3.53;;
29878;SDS011;16752;53.364;-1.488;2023-07-24T07:13:15;11.32;;;3.35;;
29878;SDS011;16752;53.364;-1.488;2023-07-24T07:15:58;9.88;;;3.20;;
29878;SDS011;16752;53.364;-1.488;2023-07-24T07:40:54;6.90;;;3.80;;
29878;SDS011;16752;53.364;-1.488;2023-07-24T07:47:00;14.32;;;4.20;;
29878;SDS011;16752;53.364;-1.488;2023-07-24T07:49:45;12.65;;;4.38;;
29878;SDS011;16752;53.364;-1.488;2023-07-24T07:52:31;13.23;;;4.35;;
29878;SDS011;16752;53.364;-1.488;2023-07-24T07:55:15;7.63;;;3.60;;
29878;SDS011;16752;53.364;-1.488;2023-07-24T07:57:59;17.95;;;5.57;;
29878;SDS011;16752;53.364;-1.488;2023-07-24T08:00:43;12.77;;;4.40;;
29878;SDS011;16752;53.364;-1.488;2023-07-24T08:03:27;13.02;;;4.18;;
29878;SDS011;16752;53.364;-1.488;2023-07-24T08:06:11;14.25;;;4.13;;
29878;SDS011;16752;53.364;-1.488;2023-07-24T08:08:56;11.35;;;3.47;;
29878;SDS011;16752;53.364;-1.488;2023-07-24T08:11:41;13.05;;;4.07;;
29878;SDS011;16752;53.364;-1.488;2023-07-24T08:14:26;7.97;;;3.42;;
29878;SDS011;16752;53.364;-1.488;2023-07-24T08:17:10;8.07;;;3.95;;
29878;SDS011;16752;53.364;-1.488;2023-07-24T08:19:53;13.25;;;4.82;;
29878;SDS011;16752;53.364;-1.488;2023-07-24T08:22:37;6.57;;;3.28;;
29878;SDS011;16752;53.364;-1.488;2023-07-24T08:25:21;10.63;;;3.67;;
29878;SDS011;16752;53.364;-1.488;2023-07-24T08:28:05;7.78;;;3.35;;
29878;SDS011;16752;53.364;-1.488;2023-07-24T08:30:56;16.60;;;4.13;;
29878;SDS011;16752;53.364;-1.488;2023-07-24T08:33:41;8.40;;;3.83;;
29878;SDS011;16752;53.364;-1.488;2023-07-24T08:36:25;12.30;;;3.80;;
29878;SDS011;16752;53.364;-1.488;2023-07-24T08:39:09;11.95;;;4.32;;
29878;SDS011;16752;53.364;-1.488;2023-07-24T08:41:53;12.20;;;4.50;;
29878;SDS011;16752;53.364;-1.488;2023-07-24T08:44:41;7.22;;;3.83;;
29878;SDS011;16752;53.364;-1.488;2023-07-24T08:47:32;8.25;;;3.85;;
29878;SDS011;16752;53.364;-1.488;2023-07-24T08:50:20;12.40;;;4.35;;
29878;SDS011;16752;53.364;-1.488;2023-07-24T08:53:09;9.23;;;4.40;;
29878;SDS011;16752;53.364;-1.488;2023-07-24T08:55:53;13.75;;;4.18;;
29878;SDS011;16752;53.364;-1.488;2023-07-24T08:58:40;12.13;;;4.18;;
29878;SDS011;16752;53.364;-1.488;2023-07-24T09:01:27;7.35;;;3.92;;
29878;SDS011;16752;53.364;-1.488;2023-07-24T09:04:14;11.13;;;3.88;;
29878;SDS011;16752;53.364;-1.488;2023-07-24T09:06:58;12.60;;;4.18;;
29878;SDS011;16752;53.364;-1.488;2023-07-24T09:09:43;7.20;;;3.88;;
29878;SDS011;16752;53.364;-1.488;2023-07-24T09:15:13;10.85;;;3.85;;
29878;SDS011;16752;53.364;-1.488;2023-07-24T09:21:05;14.30;;;3.72;;
29878;SDS011;16752;53.364;-1.488;2023-07-24T09:23:49;8.88;;;3.40;;
29878;SDS011;16752;53.364;-1.488;2023-07-24T09:26:33;6.30;;;3.20;;
29878;SDS011;16752;53.364;-1.488;2023-07-24T09:29:17;6.47;;;3.10;;
29878;SDS011;16752;53.364;-1.488;2023-07-24T09:32:02;5.68;;;2.90;;
29878;SDS011;16752;53.364;-1.488;2023-07-24T09:34:46;4.55;;;2.65;;
29878;SDS011;16752;53.364;-1.488;2023-07-24T09:37:34;5.07;;;2.50;;
29878;SDS011;16752;53.364;-1.488;2023-07-24T09:40:19;6.45;;;3.13;;
29878;SDS011;16752;53.364;-1.488;2023-07-24T09:43:14;10.15;;;3.47;;
29878;SDS011;16752;53.364;-1.488;2023-07-24T09:46:05;6.90;;;3.13;;
29878;SDS011;16752;53.364;-1.488;2023-07-24T09:48:50;8.57;;;2.95;;
29878;SDS011;16752;53.364;-1.488;2023-07-24T09:51:35;6.18;;;2.58;;
29878;SDS011;16752;53.364;-1.488;2023-07-24T09:54:29;5.72;;;2.70;;
29878;SDS011;16752;53.364;-1.488;2023-07-24T09:57:28;6.28;;;2.92;;
29878;SDS011;16752;53.364;-1.488;2023-07-24T10:00:23;7.13;;;2.58;;
29878;SDS011;16752;53.364;-1.488;2023-07-24T10:03:07;9.20;;;3.03;;
29878;SDS011;16752;53.364;-1.488;2023-07-24T10:05:52;8.52;;;3.22;;
29878;SDS011;16752;53.364;-1.488;2023-07-24T10:15:01;8.73;;;2.95;;
29878;SDS011;16752;53.364;-1.488;2023-07-24T10:17:46;7.20;;;2.60;;
29878;SDS011;16752;53.364;-1.488;2023-07-24T10:20:46;6.03;;;2.22;;
29878;SDS011;16752;53.364;-1.488;2023-07-24T10:23:44;5.53;;;2.72;;
29878;SDS011;16752;53.364;-1.488;2023-07-24T10:29:19;7.53;;;2.55;;
29878;SDS011;16752;53.364;-1.488;2023-07-24T10:32:03;7.97;;;2.40;;
29878;SDS011;16752;53.364;-1.488;2023-07-24T10:34:59;5.47;;;2.77;;
29878;SDS011;16752;53.364;-1.488;2023-07-24T10:41:03;9.60;;;3.15;;
29878;SDS011;16752;53.364;-1.488;2023-07-24T10:44:00;8.38;;;2.60;;
29878;SDS011;16752;53.364;-1.488;2023-07-24T10:46:44;9.80;;;2.80;;
29878;SDS011;16752;53.364;-1.488;2023-07-24T10:49:34;8.02;;;2.83;;
29878;SDS011;16752;53.364;-1.488;2023-07-24T10:52:26;4.25;;;1.83;;
29878;SDS011;16752;53.364;-1.488;2023-07-24T10:55:11;6.65;;;2.50;;
29878;SDS011;16752;53.364;-1.488;2023-07-24T10:57:58;14.52;;;2.20;;
29878;SDS011;16752;53.364;-1.488;2023-07-24T11:00:43;4.20;;;2.00;;
29878;SDS011;16752;53.364;-1.488;2023-07-24T11:03:28;5.80;;;2.33;;
29878;SDS011;16752;53.364;-1.488;2023-07-24T11:06:21;4.85;;;1.88;;
29878;SDS011;16752;53.364;-1.488;2023-07-24T11:09:16;7.95;;;2.42;;
29878;SDS011;16752;53.364;-1.488;2023-07-24T11:12:13;6.57;;;1.95;;
29878;SDS011;16752;53.364;-1.488;2023-07-24T11:14:58;4.70;;;1.90;;
29878;SDS011;16752;53.364;-1.488;2023-07-24T11:17:45;6.55;;;2.00;;
29878;SDS011;16752;53.364;-1.488;2023-07-24T11:20:35;6.25;;;1.85;;
29878;SDS011;16752;53.364;-1.488;2023-07-24T11:23:55;4.18;;;1.50;;
29878;SDS011;16752;53.364;-1.488;2023-07-24T11:26:39;6.15;;;1.98;;
29878;SDS011;16752;53.364;-1.488;2023-07-24T11:29:30;5.10;;;1.92;;
29878;SDS011;16752;53.364;-1.488;2023-07-24T11:32:22;4.97;;;1.67;;
29878;SDS011;16752;53.364;-1.488;2023-07-24T11:35:06;5.65;;;1.73;;
29878;SDS011;16752;53.364;-1.488;2023-07-24T11:37:54;7.53;;;1.63;;
29878;SDS011;16752;53.364;-1.488;2023-07-24T11:40:39;5.20;;;1.67;;
29878;SDS011;16752;53.364;-1.488;2023-07-24T11:43:35;5.60;;;1.75;;
29878;SDS011;16752;53.364;-1.488;2023-07-24T11:46:27;5.05;;;1.75;;
29878;SDS011;16752;53.364;-1.488;2023-07-24T11:52:04;5.90;;;1.92;;
29878;SDS011;16752;53.364;-1.488;2023-07-24T11:58:53;5.65;;;2.05;;
29878;SDS011;16752;53.364;-1.488;2023-07-24T12:02:09;7.18;;;2.50;;
29878;SDS011;16752;53.364;-1.488;2023-07-24T12:04:58;7.07;;;1.90;;
29878;SDS011;16752;53.364;-1.488;2023-07-24T12:08:21;3.63;;;1.65;;
29878;SDS011;16752;53.364;-1.488;2023-07-24T12:15:21;12.30;;;1.95;;
29878;SDS011;16752;53.364;-1.488;2023-07-24T12:21:41;5.80;;;1.58;;
29878;SDS011;16752;53.364;-1.488;2023-07-24T12:24:34;9.05;;;1.77;;
29878;SDS011;16752;53.364;-1.488;2023-07-24T12:27:31;7.38;;;2.05;;
29878;SDS011;16752;53.364;-1.488;2023-07-24T12:30:34;4.10;;;1.27;;
29878;SDS011;16752;53.364;-1.488;2023-07-24T12:40:39;5.35;;;1.40;;
29878;SDS011;16752;53.364;-1.488;2023-07-24T13:00:57;6.22;;;1.60;;
29878;SDS011;16752;53.364;-1.488;2023-07-24T13:04:42;3.70;;;1.33;;
29878;SDS011;16752;53.364;-1.488;2023-07-24T13:07:39;4.70;;;1.92;;
29878;SDS011;16752;53.364;-1.488;2023-07-24T13:13:32;5.60;;;1.60;;
29878;SDS011;16752;53.364;-1.488;2023-07-24T13:19:59;4.88;;;1.77;;
29878;SDS011;16752;53.364;-1.488;2023-07-24T13:22:48;3.88;;;1.67;;
29878;SDS011;16752;53.364;-1.488;2023-07-24T13:29:31;4.22;;;1.77;;
29878;SDS011;16752;53.364;-1.488;2023-07-24T13:32:21;4.82;;;1.50;;
29878;SDS011;16752;53.364;-1.488;2023-07-24T13:35:41;3.50;;;1.40;;
29878;SDS011;16752;53.364;-1.488;2023-07-24T13:38:37;2.55;;;1.27;;
29878;SDS011;16752;53.364;-1.488;2023-07-24T13:41:25;2.53;;;1.40;;
29878;SDS011;16752;53.364;-1.488;2023-07-24T13:44:19;2.90;;;1.42;;
29878;SDS011;16752;53.364;-1.488;2023-07-24T13:47:03;5.25;;;1.67;;
29878;SDS011;16752;53.364;-1.488;2023-07-24T13:50:20;2.55;;;1.05;;
29878;SDS011;16752;53.364;-1.488;2023-07-24T13:53:22;3.57;;;1.40;;
29878;SDS011;16752;53.364;-1.488;2023-07-24T13:56:06;7.03;;;1.90;;
29878;SDS011;16752;53.364;-1.488;2023-07-24T13:59:02;5.18;;;1.38;;
29878;SDS011;16752;53.364;-1.488;2023-07-24T14:05:44;3.47;;;1.42;;
29878;SDS011;16752;53.364;-1.488;2023-07-24T14:08:35;4.10;;;1.38;;
29878;SDS011;16752;53.364;-1.488;2023-07-24T14:26:10;10.30;;;2.85;;
29878;SDS011;16752;53.364;-1.488;2023-07-24T14:32:56;4.25;;;0.95;;
29878;SDS011;16752;53.364;-1.488;2023-07-24T14:38:30;6.50;;;1.40;;
29878;SDS011;16752;53.364;-1.488;2023-07-24T14:41:39;5.97;;;1.23;;
29878;SDS011;16752;53.364;-1.488;2023-07-24T14:44:29;4.83;;;1.50;;
29878;SDS011;16752;53.364;-1.488;2023-07-24T14:47:13;5.75;;;1.23;;
29878;SDS011;16752;53.364;-1.488;2023-07-24T14:49:57;5.45;;;1.52;;
29878;SDS011;16752;53.364;-1.488;2023-07-24T15:19:02;3.08;;;1.40;;
29878;SDS011;16752;53.364;-1.488;2023-07-24T15:25:47;2.40;;;1.10;;
29878;SDS011;16752;53.364;-1.488;2023-07-24T15:28:37;4.15;;;1.20;;
29878;SDS011;16752;53.364;-1.488;2023-07-24T15:31:21;2.88;;;1.08;;
29878;SDS011;16752;53.364;-1.488;2023-07-24T15:34:19;2.00;;;0.90;;
29878;SDS011;16752;53.364;-1.488;2023-07-24T15:37:13;10.27;;;1.60;;
29878;SDS011;16752;53.364;-1.488;2023-07-24T15:43:06;4.40;;;1.58;;
29878;SDS011;16752;53.364;-1.488;2023-07-24T15:45:59;3.58;;;1.10;;
29878;SDS011;16752;53.364;-1.488;2023-07-24T15:48:49;4.68;;;1.20;;
29878;SDS011;16752;53.364;-1.488;2023-07-24T15:51:33;3.92;;;1.27;;
29878;SDS011;16752;53.364;-1.488;2023-07-24T15:54:51;2.38;;;0.90;;
29878;SDS011;16752;53.364;-1.488;2023-07-24T15:57:28;2.22;;;1.25;;
29878;SDS011;16752;53.364;-1.488;2023-07-24T16:00:31;1.83;;;0.85;;
29878;SDS011;16752;53.364;-1.488;2023-07-24T16:03:43;1.67;;;0.93;;
29878;SDS011;16752;53.364;-1.488;2023-07-24T16:07:18;1.35;;;1.02;;
29878;SDS011;16752;53.364;-1.488;2023-07-24T16:10:03;2.47;;;1.13;;
29878;SDS011;16752;53.364;-1.488;2023-07-24T16:12:48;2.47;;;1.20;;
29878;SDS011;16752;53.364;-1.488;2023-07-24T16:15:39;1.88;;;0.75;;
29878;SDS011;16752;53.364;-1.488;2023-07-24T16:18:26;3.10;;;1.00;;
29878;SDS011;16752;53.364;-1.488;2023-07-24T16:21:10;2.03;;;0.93;;
29878;SDS011;16752;53.364;-1.488;2023-07-24T16:23:54;3.53;;;1.23;;
29878;SDS011;16752;53.364;-1.488;2023-07-24T16:26:38;2.78;;;1.10;;
29878;SDS011;16752;53.364;-1.488;2023-07-24T16:29:23;5.50;;;1.95;;
29878;SDS011;16752;53.364;-1.488;2023-07-24T16:32:07;4.38;;;1.27;;
29878;SDS011;16752;53.364;-1.488;2023-07-24T16:34:51;3.45;;;1.35;;
29878;SDS011;16752;53.364;-1.488;2023-07-24T16:37:36;4.85;;;1.75;;
29878;SDS011;16752;53.364;-1.488;2023-07-24T16:40:23;2.00;;;1.25;;
29878;SDS011;16752;53.364;-1.488;2023-07-24T16:43:07;2.85;;;1.38;;
29878;SDS011;16752;53.364;-1.488;2023-07-24T16:45:51;2.78;;;1.40;;
29878;SDS011;16752;53.364;-1.488;2023-07-24T16:48:38;2.15;;;1.33;;
29878;SDS011;16752;53.364;-1.488;2023-07-24T16:51:22;2.65;;;1.40;;
29878;SDS011;16752;53.364;-1.488;2023-07-24T16:54:06;5.60;;;1.35;;
29878;SDS011;16752;53.364;-1.488;2023-07-24T16:56:50;3.35;;;1.42;;
29878;SDS011;16752;53.364;-1.488;2023-07-24T16:59:35;2.60;;;1.25;;
29878;SDS011;16752;53.364;-1.488;2023-07-24T17:02:18;4.65;;;1.65;;
29878;SDS011;16752;53.364;-1.488;2023-07-24T17:05:02;3.45;;;1.40;;
29878;SDS011;16752;53.364;-1.488;2023-07-24T17:07:47;3.08;;;1.60;;
29878;SDS011;16752;53.364;-1.488;2023-07-24T17:10:47;4.03;;;1.52;;
29878;SDS011;16752;53.364;-1.488;2023-07-24T17:13:33;4.60;;;1.73;;
29878;SDS011;16752;53.364;-1.488;2023-07-24T17:16:18;4.05;;;1.70;;
29878;SDS011;16752;53.364;-1.488;2023-07-24T17:19:02;2.67;;;1.05;;
29878;SDS011;16752;53.364;-1.488;2023-07-24T17:21:46;2.53;;;1.00;;
29878;SDS011;16752;53.364;-1.488;2023-07-24T17:24:31;5.03;;;1.70;;
29878;SDS011;16752;53.364;-1.488;2023-07-24T17:27:15;5.18;;;2.00;;
29878;SDS011;16752;53.364;-1.488;2023-07-24T17:30:04;5.33;;;1.50;;
29878;SDS011;16752;53.364;-1.488;2023-07-24T17:32:49;3.15;;;1.77;;
29878;SDS011;16752;53.364;-1.488;2023-07-24T17:35:33;1.92;;;1.20;;
29878;SDS011;16752;53.364;-1.488;2023-07-24T17:38:17;4.18;;;1.50;;
29878;SDS011;16752;53.364;-1.488;2023-07-24T17:41:01;2.72;;;1.73;;
29878;SDS011;16752;53.364;-1.488;2023-07-24T17:43:47;1.90;;;1.48;;
29878;SDS011;16752;53.364;-1.488;2023-07-24T17:46:40;5.22;;;1.63;;
29878;SDS011;16752;53.364;-1.488;2023-07-24T17:49:24;5.15;;;1.67;;
29878;SDS011;16752;53.364;-1.488;2023-07-24T17:52:14;4.10;;;1.73;;
29878;SDS011;16752;53.364;-1.488;2023-07-24T17:55:08;4.30;;;1.85;;
29878;SDS011;16752;53.364;-1.488;2023-07-24T17:57:55;6.40;;;1.73;;
29878;SDS011;16752;53.364;-1.488;2023-07-24T18:00:43;5.20;;;2.10;;
29878;SDS011;16752;53.364;-1.488;2023-07-24T18:07:18;3.88;;;1.88;;
29878;SDS011;16752;53.364;-1.488;2023-07-24T18:13:31;1.90;;;1.55;;
29878;SDS011;16752;53.364;-1.488;2023-07-24T18:16:39;3.15;;;1.52;;
29878;SDS011;16752;53.364;-1.488;2023-07-24T18:19:43;4.95;;;1.85;;
29878;SDS011;16752;53.364;-1.488;2023-07-24T18:22:48;6.28;;;1.98;;
29878;SDS011;16752;53.364;-1.488;2023-07-24T18:26:09;5.13;;;1.42;;
29878;SDS011;16752;53.364;-1.488;2023-07-24T18:36:44;4.38;;;1.88;;
29878;SDS011;16752;53.364;-1.488;2023-07-24T18:58:46;4.47;;;1.63;;
29878;SDS011;16752;53.364;-1.488;2023-07-24T19:02:00;3.10;;;1.65;;
29878;SDS011;16752;53.364;-1.488;2023-07-24T19:15:54;5.25;;;1.65;;
29878;SDS011;16752;53.364;-1.488;2023-07-24T19:22:18;3.42;;;1.63;;
29878;SDS011;16752;53.364;-1.488;2023-07-24T19:29:04;2.20;;;1.73;;
29878;SDS011;16752;53.364;-1.488;2023-07-24T19:32:11;1.85;;;1.70;;
29878;SDS011;16752;53.364;-1.488;2023-07-24T19:39:06;5.68;;;1.75;;
29878;SDS011;16752;53.364;-1.488;2023-07-24T19:41:50;3.08;;;2.33;;
29878;SDS011;16752;53.364;-1.488;2023-07-24T19:44:35;4.43;;;2.47;;
29878;SDS011;16752;53.364;-1.488;2023-07-24T19:51:03;2.45;;;1.52;;
29878;SDS011;16752;53.364;-1.488;2023-07-24T19:58:29;6.75;;;1.67;;
29878;SDS011;16752;53.364;-1.488;2023-07-24T20:31:03;2.65;;;1.55;;
